Time;durP1;ratioP1;P1;durP2;ratioP2;P2;SDS_P1;SDS_P2;PMS_P1;PMS_P2;Temp;Humidity;BMP_temperature;BMP_pressure;BME280_temperature;BME280_humidity;BME280_pressure;Samples;Min_cycle;Max_cycle;Signal;HPM_P1;HPM_P2
2023/12/19 00:00:10;;;;;;;0.20;0.20;;;7.30;99.90;;;;;;5054673;28;20039;-73
2023/12/19 00:02:36;;;;;;;1.52;1.33;;;7.40;99.90;;;;;;5055731;28;20631;-73
2023/12/19 00:05:03;;;;;;;1.60;1.02;;;7.50;99.90;;;;;;5055488;28;20119;-73
2023/12/19 00:07:29;;;;;;;11.20;5.45;;;7.50;99.90;;;;;;5055410;28;20044;-74
2023/12/19 00:09:55;;;;;;;9.00;4.30;;;7.60;99.90;;;;;;5054294;28;20083;-73
2023/12/19 00:12:21;;;;;;;2.83;2.45;;;7.50;99.90;;;;;;5055371;28;20043;-74
2023/12/19 00:14:47;;;;;;;0.93;0.77;;;7.60;99.90;;;;;;5055814;28;20460;-74
2023/12/19 00:17:13;;;;;;;22.20;9.90;;;7.50;99.90;;;;;;5055469;28;20109;-74
2023/12/19 00:19:39;;;;;;;2.22;1.95;;;7.50;99.90;;;;;;5055185;28;20027;-73
2023/12/19 00:22:05;;;;;;;13.73;7.10;;;7.60;99.90;;;;;;5055401;28;20480;-74
2023/12/19 00:24:31;;;;;;;12.68;5.43;;;7.50;99.90;;;;;;5055422;28;20025;-74
2023/12/19 00:26:56;;;;;;;6.18;2.63;;;7.60;99.90;;;;;;5055362;28;20025;-74
2023/12/19 00:29:23;;;;;;;18.00;8.68;;;7.50;99.90;;;;;;5054920;28;20543;-74
2023/12/19 00:31:51;;;;;;;4.60;3.10;;;7.50;99.90;;;;;;5055476;28;20033;-75
2023/12/19 00:34:17;;;;;;;4.65;2.20;;;7.50;99.90;;;;;;5055120;28;20060;-74
2023/12/19 00:36:43;;;;;;;19.23;5.95;;;7.60;99.90;;;;;;5054034;28;20040;-74
2023/12/19 00:39:09;;;;;;;19.88;10.10;;;7.60;99.90;;;;;;5055129;28;20027;-74
2023/12/19 00:41:36;;;;;;;2.20;1.98;;;7.60;99.90;;;;;;5054775;28;20061;-74
2023/12/19 00:44:02;;;;;;;8.90;4.43;;;7.60;99.90;;;;;;5055041;28;20025;-73
2023/12/19 00:46:27;;;;;;;15.00;6.03;;;7.60;99.90;;;;;;5055072;28;20029;-74
2023/12/19 00:48:54;;;;;;;10.52;5.93;;;7.60;99.90;;;;;;5037175;28;20045;-74
2023/12/19 00:51:21;;;;;;;17.35;7.97;;;7.70;99.90;;;;;;5054695;28;20029;-74
2023/12/19 00:53:47;;;;;;;9.77;6.28;;;7.70;99.90;;;;;;5054825;28;20048;-74
2023/12/19 00:56:13;;;;;;;10.98;6.93;;;7.70;99.90;;;;;;5053467;28;20083;-74
2023/12/19 00:58:39;;;;;;;26.33;10.52;;;7.70;99.90;;;;;;5054738;28;20021;-74
2023/12/19 01:01:06;;;;;;;8.52;3.42;;;7.60;99.90;;;;;;5054488;28;20028;-74
2023/12/19 01:03:33;;;;;;;5.53;2.00;;;7.60;99.90;;;;;;5054522;28;20103;-74
2023/12/19 01:06:03;;;;;;;14.20;5.90;;;7.70;99.90;;;;;;5054607;28;20036;-74
2023/12/19 01:08:30;;;;;;;3.65;2.53;;;7.60;99.90;;;;;;5054496;28;20021;-74
2023/12/19 01:10:56;;;;;;;30.75;14.18;;;7.60;99.90;;;;;;5054072;28;20094;-74
2023/12/19 01:13:21;;;;;;;5.82;2.50;;;7.50;99.90;;;;;;5054675;28;20509;-75
2023/12/19 01:15:51;;;;;;;20.35;7.57;;;7.70;99.90;;;;;;5052834;28;20473;-74
2023/12/19 01:18:18;;;;;;;10.88;4.05;;;7.70;99.90;;;;;;5054488;28;20115;-74
2023/12/19 01:20:45;;;;;;;8.13;5.45;;;7.70;99.90;;;;;;5054170;28;20064;-74
2023/12/19 01:23:14;;;;;;;5.22;2.38;;;7.90;99.90;;;;;;5054361;28;20094;-74
2023/12/19 01:25:40;;;;;;;12.60;7.03;;;7.70;99.90;;;;;;5053693;28;20032;-74
2023/12/19 01:28:06;;;;;;;16.13;7.80;;;7.80;99.90;;;;;;5054263;28;20031;-74
2023/12/19 01:30:32;;;;;;;9.35;5.75;;;7.70;99.90;;;;;;5053845;28;20037;-74
2023/12/19 01:32:58;;;;;;;7.28;5.03;;;7.60;99.90;;;;;;5054224;28;20048;-74
2023/12/19 01:35:24;;;;;;;9.18;5.15;;;7.70;99.90;;;;;;5054071;28;20025;-74
2023/12/19 01:37:49;;;;;;;11.98;5.90;;;7.70;99.90;;;;;;5052873;28;20025;-73
2023/12/19 01:40:15;;;;;;;4.25;3.22;;;7.70;99.90;;;;;;5053557;28;20047;-74
2023/12/19 01:42:41;;;;;;;2.22;1.58;;;7.70;99.90;;;;;;5053762;28;20028;-74
2023/12/19 01:45:11;;;;;;;11.73;4.85;;;7.80;99.90;;;;;;5054406;28;20033;-73
2023/12/19 01:47:43;;;;;;;26.67;4.43;;;7.80;99.90;;;;;;5035863;28;20117;-74
2023/12/19 01:50:11;;;;;;;18.90;9.70;;;7.80;99.90;;;;;;5052297;28;20045;-74
2023/12/19 01:52:41;;;;;;;5.75;2.97;;;7.80;99.90;;;;;;5052210;28;20533;-74
2023/12/19 01:55:07;;;;;;;19.75;9.73;;;7.90;99.90;;;;;;5053220;28;20041;-74
2023/12/19 01:57:33;;;;;;;20.17;7.15;;;7.80;99.90;;;;;;5052459;28;20128;-73
2023/12/19 02:00:00;;;;;;;11.48;7.05;;;7.80;99.90;;;;;;5053217;28;20032;-74
2023/12/19 02:02:26;;;;;;;15.80;8.07;;;7.80;99.90;;;;;;5053450;28;20036;-74
2023/12/19 02:04:55;;;;;;;8.48;4.78;;;7.90;99.90;;;;;;5053323;28;20032;-73
2023/12/19 02:07:21;;;;;;;10.50;5.82;;;7.80;99.90;;;;;;5053238;28;20032;-74
2023/12/19 02:09:47;;;;;;;5.05;3.45;;;7.80;99.90;;;;;;5051340;28;20051;-73
2023/12/19 02:12:13;;;;;;;5.78;4.38;;;7.80;99.90;;;;;;5051815;28;20029;-74
2023/12/19 02:14:46;;;;;;;24.35;9.70;;;7.80;99.90;;;;;;5053421;28;20063;-74
2023/12/19 02:17:12;;;;;;;22.23;9.07;;;7.70;99.90;;;;;;5052008;28;20466;-74
2023/12/19 02:19:48;;;;;;;18.85;6.80;;;7.80;99.90;;;;;;5052059;28;20017;-74
2023/12/19 02:22:14;;;;;;;29.35;12.18;;;7.80;99.90;;;;;;5052974;28;20035;-73
2023/12/19 02:24:41;;;;;;;1.52;1.42;;;7.80;99.90;;;;;;5051695;28;20483;-73
2023/12/19 02:27:08;;;;;;;15.75;7.85;;;7.80;99.90;;;;;;5053024;28;20036;-74
2023/12/19 02:29:38;;;;;;;24.48;11.38;;;7.90;99.90;;;;;;5052886;28;20057;-74
2023/12/19 02:32:04;;;;;;;10.43;7.70;;;7.90;99.90;;;;;;5051588;28;20079;-74
2023/12/19 02:34:31;;;;;;;11.75;6.75;;;7.70;99.90;;;;;;5052855;28;20020;-74
2023/12/19 02:36:57;;;;;;;21.88;10.45;;;7.70;99.90;;;;;;5051636;28;20029;-74
2023/12/19 02:39:24;;;;;;;6.82;4.32;;;7.80;99.90;;;;;;5053028;28;20075;-74
2023/12/19 02:41:49;;;;;;;7.18;5.15;;;7.80;99.90;;;;;;5052798;28;20461;-74
2023/12/19 02:44:15;;;;;;;13.95;6.78;;;7.80;99.90;;;;;;5052515;28;20033;-75
2023/12/19 02:46:41;;;;;;;23.75;7.47;;;7.80;99.90;;;;;;5052706;28;20029;-75
2023/12/19 02:49:07;;;;;;;15.05;5.85;;;7.80;99.90;;;;;;5052673;28;20108;-74
2023/12/19 02:51:33;;;;;;;18.92;9.48;;;7.70;99.90;;;;;;5051277;28;20032;-74
2023/12/19 02:53:59;;;;;;;5.38;2.83;;;7.70;99.90;;;;;;5051041;28;20017;-74
2023/12/19 02:56:25;;;;;;;26.63;12.13;;;7.90;99.90;;;;;;5052486;28;20595;-75
2023/12/19 02:58:51;;;;;;;8.73;4.40;;;7.90;99.90;;;;;;5051413;28;20036;-75
2023/12/19 03:01:17;;;;;;;31.00;13.50;;;8.00;99.90;;;;;;5052514;28;20032;-75
2023/12/19 03:03:43;;;;;;;2.22;1.73;;;8.00;99.90;;;;;;5051250;28;20029;-75
2023/12/19 03:06:12;;;;;;;16.90;8.73;;;8.00;99.90;;;;;;5052628;28;20031;-74
2023/12/19 03:08:43;;;;;;;22.88;7.63;;;7.80;99.90;;;;;;5050799;28;20123;-74
2023/12/19 03:11:09;;;;;;;13.38;8.63;;;7.80;99.90;;;;;;5051240;28;20039;-74
2023/12/19 03:13:34;;;;;;;15.77;7.63;;;7.80;99.90;;;;;;5052283;28;20021;-74
2023/12/19 03:16:00;;;;;;;27.45;11.15;;;7.80;99.90;;;;;;5051242;28;20037;-74
2023/12/19 03:18:30;;;;;;;31.55;12.30;;;7.90;99.90;;;;;;5052454;28;20018;-75
2023/12/19 03:20:59;;;;;;;14.88;6.53;;;7.80;99.90;;;;;;5053009;28;20416;-74
2023/12/19 03:23:27;;;;;;;8.52;3.70;;;7.70;99.90;;;;;;5056377;28;20470;-74
2023/12/19 03:25:52;;;;;;;13.48;7.63;;;7.90;99.90;;;;;;5056554;28;20470;-75
2023/12/19 03:28:18;;;;;;;31.13;12.73;;;7.80;99.90;;;;;;5056265;28;20025;-74
2023/12/19 03:30:45;;;;;;;18.70;11.57;;;7.80;99.90;;;;;;5056239;28;20041;-74
2023/12/19 03:33:11;;;;;;;14.23;7.60;;;7.80;99.90;;;;;;5056511;28;20025;-75
2023/12/19 03:35:40;;;;;;;17.40;8.38;;;7.90;99.90;;;;;;5054653;28;20033;-74
2023/12/19 03:38:06;;;;;;;19.08;10.88;;;8.00;99.90;;;;;;5055305;28;20033;-75
2023/12/19 03:40:33;;;;;;;25.05;5.47;;;7.90;99.90;;;;;;5056095;28;20033;-74
2023/12/19 03:42:59;;;;;;;27.77;11.73;;;8.00;99.90;;;;;;5056096;28;20474;-75
2023/12/19 03:45:24;;;;;;;33.33;12.23;;;8.10;99.90;;;;;;5054995;28;20040;-74
2023/12/19 03:47:50;;;;;;;27.48;13.90;;;8.10;99.90;;;;;;5054539;28;20032;-75
2023/12/19 03:50:19;;;;;;;28.55;13.48;;;8.00;99.90;;;;;;5054087;28;20047;-75
2023/12/19 03:52:45;;;;;;;42.00;15.07;;;8.10;99.90;;;;;;5055754;28;20025;-74
2023/12/19 03:55:14;;;;;;;9.32;3.70;;;7.90;99.90;;;;;;5055149;28;20094;-73
2023/12/19 03:57:39;;;;;;;23.70;12.10;;;8.00;99.90;;;;;;5057273;28;20021;-74
2023/12/19 04:00:06;;;;;;;13.38;8.30;;;7.90;99.90;;;;;;5059063;28;20020;-74
2023/12/19 04:02:34;;;;;;;9.05;6.40;;;8.00;99.90;;;;;;5067633;28;20041;-74
2023/12/19 04:05:00;;;;;;;25.65;10.32;;;8.10;99.90;;;;;;5064555;28;20551;-74
2023/12/19 04:07:26;;;;;;;7.38;4.63;;;7.90;99.90;;;;;;5071062;28;20067;-74
2023/12/19 04:09:51;;;;;;;25.52;13.50;;;8.00;99.90;;;;;;5075586;28;20564;-74
2023/12/19 04:12:21;;;;;;;22.10;11.88;;;8.00;99.90;;;;;;5073882;28;20048;-74
2023/12/19 04:14:46;;;;;;;19.20;8.48;;;7.90;99.90;;;;;;5062411;28;20095;-74
2023/12/19 04:17:16;;;;;;;15.07;7.22;;;7.90;99.90;;;;;;5075727;28;20111;-74
2023/12/19 04:19:41;;;;;;;5.72;4.03;;;7.90;99.90;;;;;;5074904;28;20024;-74
2023/12/19 04:22:07;;;;;;;11.13;6.80;;;7.90;99.90;;;;;;5074324;28;20031;-74
2023/12/19 04:24:33;;;;;;;6.38;2.88;;;8.00;99.90;;;;;;5075247;28;20108;-74
2023/12/19 04:26:59;;;;;;;5.18;2.58;;;8.00;99.90;;;;;;5075309;28;20032;-74
2023/12/19 04:29:25;;;;;;;20.95;11.43;;;8.10;99.90;;;;;;5073999;28;20078;-74
2023/12/19 04:31:50;;;;;;;9.90;6.28;;;8.10;99.90;;;;;;5062398;28;20040;-74
2023/12/19 04:34:16;;;;;;;15.32;9.52;;;8.10;99.90;;;;;;5074182;28;20047;-74
2023/12/19 04:36:42;;;;;;;9.32;4.53;;;8.00;99.90;;;;;;5074995;28;20025;-75
2023/12/19 04:39:08;;;;;;;12.65;6.00;;;8.10;99.90;;;;;;5075181;28;20020;-75
2023/12/19 04:41:37;;;;;;;19.42;8.23;;;8.10;99.90;;;;;;5075122;28;20032;-75
2023/12/19 04:44:04;;;;;;;13.90;7.05;;;8.00;99.90;;;;;;5075273;28;20033;-75
2023/12/19 04:46:29;;;;;;;15.48;9.68;;;8.00;99.90;;;;;;5074872;28;20542;-75
2023/12/19 04:48:55;;;;;;;16.60;7.82;;;8.00;99.90;;;;;;5074426;28;20025;-75
2023/12/19 04:51:24;;;;;;;6.93;6.22;;;8.10;99.90;;;;;;5075009;28;20044;-75
2023/12/19 04:53:50;;;;;;;24.65;12.40;;;8.10;99.90;;;;;;5073591;28;20028;-75
2023/12/19 04:56:16;;;;;;;17.73;10.27;;;8.10;99.90;;;;;;5074691;28;20035;-75
2023/12/19 04:58:44;;;;;;;20.33;10.50;;;8.10;99.90;;;;;;5074825;28;20104;-75
2023/12/19 05:01:11;;;;;;;10.05;5.97;;;8.10;99.90;;;;;;5074604;28;20029;-75
2023/12/19 05:03:39;;;;;;;15.52;4.55;;;8.20;99.90;;;;;;5071448;28;20040;-75
2023/12/19 05:06:07;;;;;;;8.43;4.40;;;8.20;99.90;;;;;;5062362;28;20112;-75
2023/12/19 05:08:35;;;;;;;7.40;5.22;;;8.20;99.90;;;;;;5074526;28;20039;-75
2023/12/19 05:11:01;;;;;;;23.95;11.80;;;8.30;99.90;;;;;;5073109;28;20032;-75
2023/12/19 05:13:27;;;;;;;23.83;9.90;;;8.20;99.90;;;;;;5074446;28;20416;-75
2023/12/19 05:15:52;;;;;;;10.32;5.30;;;8.20;99.90;;;;;;5074194;28;20036;-75
2023/12/19 05:18:18;;;;;;;18.35;7.57;;;8.30;99.90;;;;;;5074478;28;20016;-75
2023/12/19 05:20:45;;;;;;;18.08;9.98;;;8.30;99.90;;;;;;5074328;28;20074;-75
2023/12/19 05:23:11;;;;;;;14.18;6.93;;;8.20;99.90;;;;;;5074554;28;20039;-75
2023/12/19 05:25:36;;;;;;;21.83;8.00;;;8.30;99.90;;;;;;5072948;28;20116;-75
2023/12/19 05:28:02;;;;;;;11.27;6.50;;;8.30;99.90;;;;;;5074273;28;20059;-75
2023/12/19 05:30:28;;;;;;;21.80;10.70;;;8.30;99.90;;;;;;5074018;28;20457;-74
2023/12/19 05:32:54;;;;;;;14.25;7.50;;;8.40;99.90;;;;;;5058536;28;20078;-75
2023/12/19 05:35:21;;;;;;;32.58;13.27;;;8.40;99.90;;;;;;5072660;28;20033;-74
2023/12/19 05:37:46;;;;;;;7.07;3.80;;;8.30;99.90;;;;;;5073847;28;20380;-74
2023/12/19 05:40:12;;;;;;;19.33;12.77;;;8.30;99.90;;;;;;5072599;28;20039;-75
2023/12/19 05:42:38;;;;;;;16.42;7.60;;;8.40;99.90;;;;;;5073925;28;20024;-75
2023/12/19 05:45:04;;;;;;;17.45;5.85;;;8.40;99.90;;;;;;5072646;28;20033;-75
2023/12/19 05:47:34;;;;;;;9.23;5.18;;;8.40;99.90;;;;;;5073581;28;20036;-75
2023/12/19 05:50:00;;;;;;;17.45;8.10;;;8.40;99.90;;;;;;5072043;28;20048;-75
2023/12/19 05:52:25;;;;;;;24.30;9.82;;;8.40;99.90;;;;;;5073774;28;20086;-75
2023/12/19 05:54:51;;;;;;;4.57;2.67;;;8.40;99.90;;;;;;5073702;28;20409;-75
2023/12/19 05:57:17;;;;;;;14.88;8.05;;;8.40;99.90;;;;;;5073582;28;20085;-75
2023/12/19 05:59:43;;;;;;;5.43;3.05;;;8.50;99.90;;;;;;5072168;28;20036;-75
2023/12/19 06:02:08;;;;;;;14.10;6.70;;;8.60;99.90;;;;;;5072875;28;20108;-74
2023/12/19 06:04:35;;;;;;;12.13;5.80;;;8.50;99.90;;;;;;5063703;28;20460;-74
2023/12/19 06:07:12;;;;;;;19.15;9.70;;;8.40;99.90;;;;;;5109673;27;20114;-67
2023/12/19 06:09:38;;;;;;;9.60;5.25;;;8.40;99.90;;;;;;5110582;28;20036;-68
2023/12/19 06:12:06;;;;;;;22.55;9.52;;;8.50;99.90;;;;;;5110554;28;20421;-67
2023/12/19 06:14:32;;;;;;;24.85;9.48;;;8.50;99.90;;;;;;5111050;28;20012;-68
2023/12/19 06:16:58;;;;;;;6.53;3.45;;;8.40;99.90;;;;;;5110324;28;20073;-68
2023/12/19 06:19:23;;;;;;;17.10;9.07;;;8.50;99.90;;;;;;5110644;28;20024;-67
2023/12/19 06:21:49;;;;;;;8.27;5.40;;;8.50;99.90;;;;;;5081417;22;20552;-67
2023/12/19 06:24:15;;;;;;;23.27;9.18;;;8.50;99.90;;;;;;5069784;28;20082;-69
2023/12/19 06:26:41;;;;;;;12.85;6.78;;;8.50;99.90;;;;;;5069951;28;20485;-67
2023/12/19 06:29:08;;;;;;;6.50;5.38;;;8.50;99.90;;;;;;5069561;28;20399;-69
2023/12/19 06:31:42;;;;;;;11.18;8.15;;;8.40;99.90;;;;;;5069601;28;20040;-68
2023/12/19 06:34:08;;;;;;;20.67;6.93;;;8.40;99.90;;;;;;5069720;28;20056;-68
2023/12/19 06:36:34;;;;;;;13.95;5.18;;;8.40;99.90;;;;;;5069797;28;20050;-68
2023/12/19 06:39:00;;;;;;;18.70;8.50;;;8.40;99.90;;;;;;5069768;28;20111;-68
2023/12/19 06:41:26;;;;;;;13.48;7.32;;;8.50;99.90;;;;;;5074308;28;20105;-68
2023/12/19 06:43:52;;;;;;;12.75;6.15;;;8.50;99.90;;;;;;5078523;28;20497;-69
2023/12/19 06:46:18;;;;;;;17.02;8.18;;;8.50;99.90;;;;;;5069089;28;20094;-67
2023/12/19 06:48:44;;;;;;;10.20;6.10;;;8.60;99.90;;;;;;5069484;28;20023;-67
2023/12/19 06:51:21;;;;;;;19.58;9.40;;;8.50;99.90;;;;;;5069514;28;20029;-67
2023/12/19 06:53:46;;;;;;;3.47;2.88;;;8.50;99.90;;;;;;5069567;28;20048;-68
2023/12/19 06:56:12;;;;;;;17.70;8.95;;;8.50;99.90;;;;;;5068016;28;20110;-68
2023/12/19 06:58:38;;;;;;;15.20;7.03;;;8.50;99.90;;;;;;5068975;28;20061;-68
2023/12/19 07:01:04;;;;;;;8.82;4.78;;;8.40;99.90;;;;;;5069197;28;20024;-68
2023/12/19 07:03:30;;;;;;;25.67;10.65;;;8.50;99.90;;;;;;5068909;28;20435;-68
2023/12/19 07:05:56;;;;;;;15.40;6.88;;;8.50;99.90;;;;;;5069075;28;20100;-67
2023/12/19 07:08:23;;;;;;;5.22;2.75;;;8.60;99.90;;;;;;5068906;28;20033;-67
2023/12/19 07:10:51;;;;;;;7.57;4.03;;;8.70;99.90;;;;;;5068590;28;20035;-68
2023/12/19 07:13:20;;;;;;;13.23;5.63;;;8.70;99.90;;;;;;5068701;28;20411;-68
2023/12/19 07:15:46;;;;;;;16.02;8.48;;;8.70;99.90;;;;;;5068888;28;20104;-69
2023/12/19 07:18:11;;;;;;;10.90;4.05;;;8.70;99.90;;;;;;5057202;28;20102;-69
2023/12/19 07:20:37;;;;;;;8.30;5.32;;;8.70;99.90;;;;;;5052573;28;20120;-67
2023/12/19 07:23:03;;;;;;;9.05;5.40;;;8.70;99.90;;;;;;5043028;28;20029;-69
2023/12/19 07:25:29;;;;;;;7.72;4.03;;;8.70;99.90;;;;;;5055579;28;20037;-68
2023/12/19 07:27:55;;;;;;;30.77;7.80;;;8.80;99.90;;;;;;5053890;28;20094;-67
2023/12/19 07:30:20;;;;;;;17.63;7.53;;;8.70;99.90;;;;;;5055382;28;20064;-68
2023/12/19 07:32:51;;;;;;;12.65;6.47;;;8.70;99.90;;;;;;5055367;28;20021;-67
2023/12/19 07:35:19;;;;;;;25.05;9.48;;;8.80;99.90;;;;;;5055387;28;20024;-67
2023/12/19 07:37:46;;;;;;;6.25;3.95;;;8.80;99.90;;;;;;5054089;28;20032;-68
2023/12/19 07:40:12;;;;;;;13.23;6.28;;;8.80;99.90;;;;;;5054971;28;20489;-67
2023/12/19 07:42:41;;;;;;;9.80;5.28;;;8.90;99.90;;;;;;5054847;28;20025;-68
2023/12/19 07:45:08;;;;;;;13.18;4.18;;;8.80;99.90;;;;;;5055321;28;20389;-67
2023/12/19 07:47:34;;;;;;;9.88;6.50;;;8.80;99.90;;;;;;5055128;28;20036;-67
2023/12/19 07:49:59;;;;;;;19.83;9.77;;;8.90;99.90;;;;;;5055395;28;20021;-69
2023/12/19 07:52:26;;;;;;;9.85;6.00;;;8.80;99.90;;;;;;5055182;28;20476;-68
2023/12/19 07:54:54;;;;;;;11.30;5.65;;;8.80;99.90;;;;;;5054950;28;20025;-68
2023/12/19 07:57:20;;;;;;;14.07;5.97;;;8.80;99.90;;;;;;5054958;28;20033;-68
2023/12/19 07:59:49;;;;;;;23.30;5.60;;;8.80;99.90;;;;;;5054733;28;20027;-67
2023/12/19 08:02:15;;;;;;;9.45;5.82;;;8.80;99.90;;;;;;5055304;28;20041;-69
2023/12/19 08:04:44;;;;;;;5.50;4.10;;;8.70;99.90;;;;;;5053416;28;20029;-69
2023/12/19 08:07:10;;;;;;;47.47;7.45;;;8.70;99.90;;;;;;5054804;28;20452;-68
2023/12/19 08:09:35;;;;;;;31.05;6.90;;;8.70;99.90;;;;;;5054108;28;20025;-68
2023/12/19 08:12:01;;;;;;;14.40;8.38;;;8.70;99.90;;;;;;5068231;28;20048;-68
2023/12/19 08:14:27;;;;;;;7.80;3.88;;;8.80;99.90;;;;;;5061258;28;20044;-68
2023/12/19 08:16:53;;;;;;;16.17;6.13;;;8.80;99.90;;;;;;5074480;28;20039;-68
2023/12/19 08:19:19;;;;;;;9.77;3.67;;;8.80;99.90;;;;;;5054855;28;20452;-66
2023/12/19 08:21:52;;;;;;;7.47;3.22;;;8.90;99.90;;;;;;5052708;28;20164;-69
2023/12/19 08:24:18;;;;;;;10.95;5.40;;;8.80;99.90;;;;;;5054066;28;20047;-68
2023/12/19 08:26:50;;;;;;;8.82;4.07;;;8.80;99.90;;;;;;5052515;28;20052;-68
2023/12/19 08:29:17;;;;;;;16.90;6.78;;;8.70;99.90;;;;;;5051304;28;20033;-69
2023/12/19 08:31:46;;;;;;;13.27;5.13;;;8.90;99.90;;;;;;5051941;28;20393;-67
2023/12/19 08:34:12;;;;;;;9.32;3.33;;;8.90;99.90;;;;;;5053285;28;20021;-69
2023/12/19 08:36:38;;;;;;;16.42;8.30;;;8.80;99.90;;;;;;5053811;28;20029;-67
2023/12/19 08:39:07;;;;;;;13.82;5.80;;;8.80;99.90;;;;;;5053500;28;20018;-68
2023/12/19 08:41:33;;;;;;;1.40;1.05;;;8.80;99.90;;;;;;5053808;28;20043;-68
2023/12/19 08:43:59;;;;;;;15.15;6.43;;;8.70;99.90;;;;;;5052366;28;20033;-68
2023/12/19 08:46:25;;;;;;;2.03;1.33;;;8.80;99.90;;;;;;5053962;28;20036;-68
2023/12/19 08:48:51;;;;;;;14.18;6.50;;;8.80;99.90;;;;;;5053928;28;20120;-67
2023/12/19 08:51:20;;;;;;;16.67;5.70;;;9.00;99.90;;;;;;5067984;28;20025;-68
2023/12/19 08:53:46;;;;;;;3.17;2.42;;;9.00;99.90;;;;;;5053489;28;20099;-68
2023/12/19 08:56:12;;;;;;;10.20;6.55;;;8.90;99.90;;;;;;5052567;28;20024;-69
2023/12/19 08:58:38;;;;;;;9.13;5.60;;;9.00;99.90;;;;;;5053599;28;20386;-68
2023/12/19 09:01:03;;;;;;;6.70;3.47;;;9.00;99.90;;;;;;5053331;28;20075;-68
2023/12/19 09:03:29;;;;;;;14.65;5.65;;;9.10;99.90;;;;;;5053435;28;20044;-69
2023/12/19 09:05:55;;;;;;;10.70;4.57;;;9.10;99.90;;;;;;5060036;28;20032;-69
2023/12/19 09:08:21;;;;;;;10.02;4.60;;;9.10;99.90;;;;;;5073581;28;20032;-68
2023/12/19 09:10:47;;;;;;;23.60;7.50;;;9.10;99.90;;;;;;5054464;28;20073;-67
2023/12/19 09:13:12;;;;;;;7.25;3.63;;;9.00;99.90;;;;;;5053586;28;20482;-68
2023/12/19 09:15:38;;;;;;;9.82;4.38;;;9.00;99.90;;;;;;5053135;28;20138;-68
2023/12/19 09:18:04;;;;;;;17.90;6.53;;;9.10;99.90;;;;;;5053386;28;20095;-68
2023/12/19 09:20:30;;;;;;;1.52;1.42;;;9.20;99.90;;;;;;5052868;28;20524;-70
2023/12/19 09:22:56;;;;;;;11.90;3.90;;;9.20;99.90;;;;;;5053545;28;20033;-67
2023/12/19 09:25:22;;;;;;;6.85;2.42;;;9.20;99.90;;;;;;5052897;28;20029;-68
2023/12/19 09:27:48;;;;;;;8.02;3.70;;;9.30;99.90;;;;;;5053204;28;20389;-67
2023/12/19 09:30:16;;;;;;;14.07;6.45;;;9.30;99.90;;;;;;5052828;28;20457;-71
2023/12/19 09:32:42;;;;;;;10.32;3.38;;;9.20;99.90;;;;;;5052920;28;20087;-68
2023/12/19 09:35:10;;;;;;;10.05;3.03;;;9.20;99.90;;;;;;5053151;28;20044;-68
2023/12/19 09:37:37;;;;;;;10.02;4.88;;;9.20;99.90;;;;;;5039013;28;20025;-69
2023/12/19 09:40:03;;;;;;;10.98;4.65;;;9.30;99.90;;;;;;5052230;28;20032;-67
2023/12/19 09:42:31;;;;;;;16.50;3.85;;;9.40;99.90;;;;;;5053057;28;20385;-68
2023/12/19 09:44:58;;;;;;;10.65;4.32;;;9.40;99.90;;;;;;5038832;28;20036;-68
2023/12/19 09:47:25;;;;;;;6.50;3.53;;;9.40;99.90;;;;;;5052826;28;20048;-67
2023/12/19 09:49:54;;;;;;;16.77;4.63;;;9.40;99.90;;;;;;5066937;28;20021;-68
2023/12/19 09:52:24;;;;;;;5.68;3.78;;;9.30;99.90;;;;;;5052475;28;20025;-68
2023/12/19 09:54:51;;;;;;;9.98;4.57;;;9.30;99.90;;;;;;5052723;28;20025;-68
2023/12/19 09:57:20;;;;;;;4.65;3.08;;;9.40;99.90;;;;;;5052826;28;20056;-67
2023/12/19 09:59:47;;;;;;;7.97;3.13;;;9.40;99.90;;;;;;5052511;28;20048;-67
2023/12/19 10:02:14;;;;;;;4.10;2.67;;;9.40;99.90;;;;;;5060352;28;20469;-67
2023/12/19 10:04:41;;;;;;;12.68;5.18;;;9.50;99.90;;;;;;5058443;28;20033;-68
2023/12/19 10:07:07;;;;;;;6.60;5.55;;;9.30;99.90;;;;;;5050930;28;20171;-67
2023/12/19 10:09:32;;;;;;;6.28;4.07;;;9.40;99.90;;;;;;5051469;28;20471;-68
2023/12/19 10:12:12;;;;;;;4.60;4.15;;;9.40;99.90;;;;;;5050970;28;20131;-67
2023/12/19 10:14:38;;;;;;;3.47;2.08;;;9.40;99.90;;;;;;5052808;28;20063;-67
2023/12/19 10:17:11;;;;;;;7.15;4.47;;;9.40;99.90;;;;;;5052533;28;20538;-68
2023/12/19 10:19:38;;;;;;;2.92;1.88;;;9.60;99.90;;;;;;5065423;28;20110;-68
2023/12/19 10:22:06;;;;;;;7.72;4.28;;;9.60;99.90;;;;;;5052083;28;20071;-69
2023/12/19 10:24:32;;;;;;;7.05;3.40;;;9.40;99.90;;;;;;5052444;28;20465;-68
2023/12/19 10:27:00;;;;;;;6.80;3.55;;;9.40;99.90;;;;;;5052303;28;20039;-69
2023/12/19 10:29:25;;;;;;;12.95;5.45;;;9.50;99.90;;;;;;5052380;28;20118;-67
2023/12/19 10:31:51;;;;;;;7.43;3.50;;;9.40;99.90;;;;;;5052067;28;20056;-68
2023/12/19 10:34:18;;;;;;;9.90;3.92;;;9.40;99.90;;;;;;5052389;28;20131;-68
2023/12/19 10:36:44;;;;;;;3.33;1.52;;;9.50;99.90;;;;;;5050758;28;20052;-68
2023/12/19 10:39:11;;;;;;;9.43;3.35;;;9.40;99.90;;;;;;5052497;28;20033;-69
2023/12/19 10:41:40;;;;;;;6.85;1.48;;;9.50;99.90;;;;;;5052284;28;20019;-69
2023/12/19 10:44:07;;;;;;;2.45;1.52;;;9.40;99.90;;;;;;5064270;28;20037;-69
2023/12/19 10:46:33;;;;;;;3.38;3.08;;;9.40;99.90;;;;;;5053112;28;20040;-68
2023/12/19 10:49:01;;;;;;;12.73;5.38;;;9.40;99.90;;;;;;5052399;28;20021;-69
2023/12/19 10:51:32;;;;;;;2.55;1.98;;;9.50;99.90;;;;;;5054572;28;20058;-67
2023/12/19 10:54:08;;;;;;;4.43;2.10;;;9.40;99.90;;;;;;5066130;28;20082;-69
2023/12/19 10:56:44;;;;;;;7.22;4.38;;;9.40;99.90;;;;;;5055960;28;20079;-68
2023/12/19 10:59:20;;;;;;;5.15;2.65;;;9.40;99.90;;;;;;5054787;28;20063;-69
2023/12/19 11:01:48;;;;;;;14.57;5.45;;;9.50;99.90;;;;;;5055329;28;20025;-67
2023/12/19 11:04:21;;;;;;;9.10;3.97;;;9.50;99.90;;;;;;5055691;28;20056;-68
2023/12/19 11:06:53;;;;;;;2.10;1.55;;;9.60;99.90;;;;;;5055505;28;20131;-68
2023/12/19 11:09:25;;;;;;;3.50;1.80;;;9.60;99.90;;;;;;5055984;28;20029;-67
2023/12/19 11:11:50;;;;;;;;;;;9.50;99.90;;;;;;5056025;28;20282;-68
2023/12/19 11:14:22;;;;;;;8.07;4.55;;;9.60;99.90;;;;;;5055504;28;19999;-69
2023/12/19 11:16:57;;;;;;;11.60;5.45;;;9.60;99.90;;;;;;5055821;28;20143;-67
2023/12/19 11:19:41;;;;;;;4.95;2.97;;;9.60;99.90;;;;;;5055213;28;20099;-69
2023/12/19 11:22:26;;;;;;;9.15;5.00;;;9.80;99.90;;;;;;5054031;28;20465;-68
2023/12/19 11:25:26;;;;;;;4.13;1.73;;;9.80;99.90;;;;;;5043824;28;20033;-69
2023/12/19 11:27:59;;;;;;;11.82;4.68;;;9.80;99.90;;;;;;5038299;28;20155;-68
2023/12/19 11:30:36;;;;;;;34.95;3.33;;;9.70;99.90;;;;;;5062008;28;20036;-67
2023/12/19 11:33:04;;;;;;;3.55;1.85;;;9.70;99.90;;;;;;5055084;28;20433;-69
2023/12/19 11:35:31;;;;;;;8.25;3.78;;;9.70;99.90;;;;;;5055097;28;20033;-68
2023/12/19 11:38:15;;;;;;;22.00;4.50;;;9.60;99.90;;;;;;5055115;28;20039;-68
2023/12/19 11:40:50;;;;;;;9.35;4.35;;;9.80;99.90;;;;;;5055140;28;20392;-69
2023/12/19 11:43:39;;;;;;;5.68;3.03;;;9.70;99.90;;;;;;5054662;28;20120;-70
2023/12/19 11:46:06;;;;;;;6.72;3.42;;;9.70;99.90;;;;;;5046871;28;20136;-69
2023/12/19 11:48:51;;;;;;;2.55;1.85;;;9.80;99.90;;;;;;5054699;28;20063;-69
2023/12/19 11:51:55;;;;;;;4.13;2.50;;;9.90;99.90;;;;;;5054745;28;20037;-69
2023/12/19 11:54:20;;;;;;;4.70;3.08;;;9.70;99.90;;;;;;5068020;28;20046;-68
2023/12/19 11:56:57;;;;;;;0.00;0.00;;;9.70;99.90;;;;;;5056051;28;20021;-68
2023/12/19 11:59:24;;;;;;;13.10;5.60;;;9.70;99.90;;;;;;5053665;28;20029;-68
2023/12/19 12:01:53;;;;;;;4.80;4.10;;;9.70;99.90;;;;;;5054806;28;20024;-68
2023/12/19 12:04:19;;;;;;;5.25;3.47;;;9.70;99.90;;;;;;5054158;28;20032;-70
2023/12/19 12:06:45;;;;;;;5.10;3.22;;;9.60;99.90;;;;;;5054752;28;20477;-69
2023/12/19 12:09:11;;;;;;;8.57;4.40;;;9.60;99.90;;;;;;5054424;28;20175;-68
2023/12/19 12:11:52;;;;;;;4.45;3.15;;;9.70;99.90;;;;;;5065851;28;20036;-68
2023/12/19 12:14:18;;;;;;;5.00;2.90;;;9.70;99.90;;;;;;5049433;28;20025;-67
2023/12/19 12:16:44;;;;;;;7.03;2.35;;;9.80;99.90;;;;;;5046090;28;20025;-68
2023/12/19 12:19:11;;;;;;;5.82;3.92;;;9.80;99.90;;;;;;5053847;28;20346;-68
2023/12/19 12:21:43;;;;;;;8.77;3.05;;;9.90;99.90;;;;;;5054358;28;20118;-69
2023/12/19 12:24:15;;;;;;;1.65;0.65;;;9.80;99.90;;;;;;5054244;28;20095;-68
2023/12/19 12:26:41;;;;;;;7.65;3.80;;;9.80;99.90;;;;;;5054302;28;20048;-68
2023/12/19 12:29:07;;;;;;;13.18;2.35;;;9.80;99.90;;;;;;5054269;28;20025;-67
2023/12/19 12:31:33;;;;;;;15.05;6.35;;;9.90;99.90;;;;;;5054492;28;20020;-68
2023/12/19 12:34:00;;;;;;;5.03;3.42;;;9.80;99.90;;;;;;5052561;28;20070;-68
2023/12/19 12:36:26;;;;;;;2.85;1.42;;;9.80;99.90;;;;;;5054223;28;20025;-69
2023/12/19 12:38:56;;;;;;;8.20;4.00;;;9.80;99.90;;;;;;5054248;28;20029;-69
2023/12/19 12:41:22;;;;;;;8.35;4.32;;;9.80;99.90;;;;;;5053983;28;20028;-67
2023/12/19 12:43:51;;;;;;;8.52;5.03;;;9.80;99.90;;;;;;5054049;28;20112;-69
2023/12/19 12:46:24;;;;;;;5.10;3.65;;;9.80;99.90;;;;;;5053930;28;20037;-69
2023/12/19 12:48:52;;;;;;;2.42;1.67;;;9.80;99.90;;;;;;5054056;28;20025;-68
2023/12/19 12:51:20;;;;;;;5.82;4.35;;;9.80;99.90;;;;;;5053667;28;20480;-69